• Join FlightAware (Why Join?)
  • Login
  • US Flag 
02:13PM EDT


 

Airport Tracker/Info


-or-


 

Live Flight TrackerFlight Track Log ✈ CSN6874 ✈ 19-Oct-2013 ✈ ZWKC / KCA - ZWWW / URC

Flight Track Log - Related Links

Times and Time Zones

All times are in EDT time to prevent confusion due to time zone crossing. See the CSN6874 flight status page for this flight to view local times or setup timezone preferences in your user account.

Time Position Orientation Groundspeed Altitude Reporting Facility
EDT Latitude Longitude Course Direction KTS MPH feet Rate Location/Type
10:03PM 41.8211 83.1838 55° Northeast  Level Estimated
10:04PM 41.9239 83.3813 55° Northeast  Level Estimated
10:05PM 42.0263 83.5795 55° Northeast  Level Estimated
10:06PM 42.1283 83.7783 55° Northeast  Level Estimated
10:07PM 42.2301 83.9777 55° Northeast  Level Estimated
10:08PM 42.3314 84.1778 56° Northeast  Level Estimated
10:09PM 42.4324 84.3785 56° Northeast  Level Estimated
10:10PM 42.5331 84.5798 56° Northeast  Level Estimated
10:11PM 42.6334 84.7819 56° Northeast  Level Estimated
10:12PM 42.7334 84.9845 56° Northeast  Level Estimated
10:13PM 42.8330 85.1878 56° Northeast  Level Estimated
10:14PM 42.9322 85.3918 56° Northeast  Level Estimated
10:15PM 43.0311 85.5964 56° Northeast  Level Estimated
10:16PM 43.1296 85.8017 57° Northeast  Level Estimated
10:17PM 43.2278 86.0077 57° Northeast  Level Estimated
10:18PM 43.3255 86.2143 57° Northeast  Level Estimated
10:19PM 43.4229 86.4215 57° Northeast  Level Estimated
10:20PM 43.5200 86.6295 57° Northeast  Level Estimated
10:21PM 43.6166 86.8381 57° Northeast  Level Estimated
10:22PM 43.7129 87.0474 57° Northeast  Level Estimated
10:23PM 43.8088 87.2573 58° Northeast  Level Estimated
10:24PM 43.9043 87.4680 58° Northeast  Level Estimated
10:25PM 43.9071 87.4742 58° Northeast  Level Estimated
10:26PM 43.9071 87.4742 144° Southeast  Level Estimated
10:27PM 43.9071 87.4742 144° Southeast  Level Estimated
10:28PM 43.9071 87.4742 144° Southeast  Level Estimated
10:29PM 43.9071 87.4742 144° Southeast  Level Estimated
10:30PM 43.9071 87.4742 144° Southeast  Level Estimated
10:31PM 43.9071 87.4742 144° Southeast  Level Estimated
10:32PM 43.9071 87.4742 144° Southeast  Level Estimated
10:33PM 43.9071 87.4742 144° Southeast  Level Estimated
10:34PM 43.9071 87.4742 144° Southeast  Level Estimated
10:35PM 43.9071 87.4742 144° Southeast  Level Estimated
10:36PM 43.9071 87.4742 144° Southeast  Level Estimated
10:37PM 43.9071 87.4742 144° Southeast  Level Estimated
10:38PM 43.9071 87.4742 144° Southeast  Level Estimated
10:39PM 43.9071 87.4742 144° Southeast  Level Estimated
10:40PM 43.9071 87.4742 144° Southeast  Level Estimated